Time;durP1;ratioP1;P1;durP2;ratioP2;P2;SDS_P1;SDS_P2;PMS_P1;PMS_P2;Temp;Humidity;BMP_temperature;BMP_pressure;BME280_temperature;BME280_humidity;BME280_pressure;Samples;Min_cycle;Max_cycle;Signal;HPM_P1;HPM_P2
2024/03/13 00:02:14;;;;;;;10.50;7.78;;;282.10;2278.40;;;;;;5069454;28;20466;-78
2024/03/13 00:04:43;;;;;;;10.70;8.38;;;282.10;2278.40;;;;;;5059599;28;20047;-74
2024/03/13 00:07:15;;;;;;;12.55;7.70;;;282.10;2278.40;;;;;;5065693;28;20094;-75
2024/03/13 00:09:50;;;;;;;12.23;8.18;;;282.20;2278.40;;;;;;5066898;28;20048;-74
2024/03/13 00:12:17;;;;;;;10.50;7.32;;;282.20;2278.40;;;;;;5060044;28;20064;-74
2024/03/13 00:14:50;;;;;;;9.27;6.88;;;282.10;2278.40;;;;;;5071562;28;20078;-76
2024/03/13 00:17:20;;;;;;;11.50;8.68;;;282.20;2278.40;;;;;;5038325;28;20449;-75
2024/03/13 00:19:55;;;;;;;10.77;8.32;;;282.10;2278.40;;;;;;5064020;28;20040;-75
2024/03/13 00:22:23;;;;;;;11.50;8.03;;;282.20;2278.40;;;;;;5035736;28;20025;-75
2024/03/13 00:24:50;;;;;;;12.40;8.85;;;282.20;2278.40;;;;;;5065644;28;20029;-75
2024/03/13 00:27:16;;;;;;;12.80;8.48;;;282.20;2278.40;;;;;;5064995;28;20021;-75
2024/03/13 00:29:45;;;;;;;13.52;8.77;;;282.20;2278.40;;;;;;5057831;28;20071;-75
2024/03/13 00:32:15;;;;;;;12.38;8.82;;;282.20;2278.40;;;;;;5064641;28;20522;-74
2024/03/13 00:34:50;;;;;;;11.50;7.60;;;282.10;2278.40;;;;;;5055097;28;20044;-75
2024/03/13 00:37:16;;;;;;;10.85;7.68;;;282.20;2278.40;;;;;;5045658;28;20524;-75
2024/03/13 00:39:42;;;;;;;10.32;7.45;;;282.10;2278.40;;;;;;5069166;28;20036;-75
2024/03/13 00:42:11;;;;;;;10.90;7.63;;;282.10;2278.40;;;;;;5063087;28;20028;-79
2024/03/13 00:44:39;;;;;;;11.13;8.88;;;282.10;2278.40;;;;;;5068324;28;20020;-75
2024/03/13 00:47:06;;;;;;;13.35;8.20;;;282.10;2278.40;;;;;;5064884;28;20037;-75
2024/03/13 00:49:32;;;;;;;10.80;8.07;;;282.40;2278.40;;;;;;5064518;28;20121;-75
2024/03/13 00:51:59;;;;;;;10.93;8.05;;;282.10;2278.40;;;;;;5062346;28;20020;-74
2024/03/13 00:54:27;;;;;;;9.75;7.30;;;282.10;2278.40;;;;;;5067063;28;20024;-75
2024/03/13 00:56:55;;;;;;;13.90;9.02;;;282.10;2278.40;;;;;;5055333;28;20031;-75
2024/03/13 00:59:23;;;;;;;12.27;7.80;;;282.10;2278.40;;;;;;5073177;28;20036;-75
2024/03/13 01:01:50;;;;;;;10.75;8.18;;;282.10;2278.40;;;;;;5053612;28;20021;-75
2024/03/13 01:04:16;;;;;;;11.70;8.27;;;282.10;2278.40;;;;;;5053271;28;20020;-79
2024/03/13 01:06:43;;;;;;;14.02;8.85;;;282.00;2278.40;;;;;;5052771;28;20055;-79
2024/03/13 01:09:13;;;;;;;13.80;9.27;;;282.00;2278.40;;;;;;5053188;28;20025;-74
2024/03/13 01:11:39;;;;;;;10.75;8.13;;;282.00;2278.40;;;;;;5053068;28;20017;-75
2024/03/13 01:14:05;;;;;;;12.60;8.52;;;281.90;2278.40;;;;;;5052898;28;20017;-78
2024/03/13 01:16:31;;;;;;;13.38;9.02;;;282.10;2278.40;;;;;;5053225;28;20028;-75
2024/03/13 01:19:02;;;;;;;13.02;8.60;;;282.00;2278.40;;;;;;5052921;28;20071;-80
2024/03/13 01:21:28;;;;;;;14.07;7.97;;;282.00;2278.40;;;;;;5052099;28;20112;-75
2024/03/13 01:23:54;;;;;;;14.35;8.23;;;282.00;2278.40;;;;;;5049710;28;20111;-76
2024/03/13 01:26:20;;;;;;;12.60;8.55;;;282.00;2278.40;;;;;;5033213;28;20534;-75
2024/03/13 01:28:47;;;;;;;12.65;8.18;;;282.00;2278.40;;;;;;5048584;28;20017;-76
2024/03/13 01:31:13;;;;;;;11.27;8.18;;;282.00;2278.40;;;;;;5056154;28;20021;-78
2024/03/13 01:33:39;;;;;;;12.25;9.15;;;282.00;2278.40;;;;;;5056859;28;20021;-75
2024/03/13 01:36:08;;;;;;;10.38;8.30;;;282.00;2278.40;;;;;;5056679;28;20027;-74
2024/03/13 01:38:34;;;;;;;13.63;8.70;;;282.00;2278.40;;;;;;5056573;28;20114;-76
2024/03/13 01:55:24;;;;;;;13.43;9.35;;;282.00;2278.40;;;;;;5056519;28;20027;-78
2024/03/13 02:03:16;;;;;;;11.13;8.45;;;282.00;2278.40;;;;;;5056505;28;20382;-75
2024/03/13 02:05:43;;;;;;;12.70;9.48;;;282.10;2278.40;;;;;;5056187;28;20033;-75
2024/03/13 02:08:14;;;;;;;13.35;8.98;;;282.00;2278.40;;;;;;5055942;28;20395;-77
2024/03/13 02:10:40;;;;;;;11.63;8.68;;;282.00;2278.40;;;;;;5056265;28;20043;-75
2024/03/13 02:13:10;;;;;;;11.90;8.93;;;282.00;2278.40;;;;;;5054952;28;20108;-75
2024/03/13 02:15:40;;;;;;;12.98;9.38;;;282.00;2278.40;;;;;;5056060;28;20074;-75
2024/03/13 02:18:21;;;;;;;15.35;9.80;;;282.00;2278.40;;;;;;5056010;28;20033;-78
2024/03/13 02:20:48;;;;;;;14.35;10.00;;;282.00;2278.40;;;;;;5054734;28;20025;-80
2024/03/13 02:23:27;;;;;;;13.73;9.35;;;282.00;2278.40;;;;;;5055708;28;20474;-75
2024/03/13 02:25:53;;;;;;;14.00;10.52;;;281.90;2278.40;;;;;;5054603;28;20029;-76
2024/03/13 02:28:36;;;;;;;14.90;10.10;;;281.90;2278.40;;;;;;5046279;28;20055;-78
2024/03/13 02:31:03;;;;;;;12.45;9.75;;;281.90;2278.40;;;;;;5043084;28;20017;-76
2024/03/13 02:33:29;;;;;;;15.13;10.15;;;281.90;2278.40;;;;;;5044098;28;20124;-78
2024/03/13 02:35:55;;;;;;;13.73;10.10;;;281.90;2278.40;;;;;;5055801;28;20032;-76
2024/03/13 02:38:21;;;;;;;13.82;9.68;;;281.90;2278.40;;;;;;5055372;28;20065;-76
2024/03/13 02:40:47;;;;;;;15.23;10.40;;;282.30;2278.40;;;;;;5054733;28;20044;-77
2024/03/13 02:43:13;;;;;;;12.00;9.00;;;281.90;2278.40;;;;;;5054970;28;20470;-77
2024/03/13 02:45:42;;;;;;;13.35;9.77;;;282.00;2278.40;;;;;;5054500;28;20021;-77
2024/03/13 02:48:09;;;;;;;13.57;9.50;;;281.90;2278.40;;;;;;5055800;28;20027;-76
2024/03/13 02:50:35;;;;;;;14.18;10.45;;;281.90;2278.40;;;;;;5054521;28;20110;-76
2024/03/13 02:53:01;;;;;;;13.50;9.80;;;282.00;2278.40;;;;;;5055710;28;20084;-78
2024/03/13 02:55:27;;;;;;;14.63;9.80;;;282.00;2278.40;;;;;;5055675;28;20088;-76
2024/03/13 02:57:53;;;;;;;13.82;9.60;;;282.10;2278.40;;;;;;5055349;28;20120;-76
2024/03/13 03:00:19;;;;;;;14.13;10.25;;;282.10;2278.40;;;;;;5055565;28;20096;-76
2024/03/13 03:02:44;;;;;;;16.73;10.95;;;282.10;2278.40;;;;;;5041313;28;20382;-77
2024/03/13 03:05:10;;;;;;;12.63;9.82;;;282.00;2278.40;;;;;;5054254;28;20028;-77
2024/03/13 03:07:36;;;;;;;15.00;10.80;;;282.00;2278.40;;;;;;5054735;28;20052;-76
2024/03/13 03:10:02;;;;;;;14.82;9.77;;;282.00;2278.40;;;;;;5055250;28;20040;-76
2024/03/13 03:12:28;;;;;;;14.85;10.50;;;282.00;2278.40;;;;;;5048070;28;20021;-76
2024/03/13 03:14:55;;;;;;;14.95;10.50;;;282.00;2278.40;;;;;;5055209;28;20016;-77
2024/03/13 03:17:21;;;;;;;14.00;10.30;;;282.00;2278.40;;;;;;5055095;28;20021;-78
2024/03/13 03:19:50;;;;;;;13.90;10.20;;;282.00;2278.40;;;;;;5055205;28;20021;-77
2024/03/13 03:22:17;;;;;;;13.77;10.57;;;282.00;2278.40;;;;;;5055053;28;20028;-78
2024/03/13 03:24:45;;;;;;;14.07;10.43;;;282.00;2278.40;;;;;;5053835;28;20021;-76
2024/03/13 03:27:11;;;;;;;15.93;10.73;;;282.00;2278.40;;;;;;5053605;28;20031;-76
2024/03/13 03:29:39;;;;;;;14.45;11.23;;;282.10;2278.40;;;;;;5054991;28;20021;-80
2024/03/13 03:32:05;;;;;;;15.25;10.02;;;282.10;2278.40;;;;;;5053205;28;20086;-76
2024/03/13 03:34:32;;;;;;;16.02;11.48;;;282.00;2278.40;;;;;;5042741;28;20083;-76
2024/03/13 03:36:58;;;;;;;18.40;12.30;;;282.00;2278.40;;;;;;5053404;28;20454;-78
2024/03/13 03:39:26;;;;;;;19.05;11.13;;;282.10;2278.40;;;;;;5054540;28;20116;-77
2024/03/13 03:41:52;;;;;;;15.30;10.88;;;282.00;2278.40;;;;;;5052867;28;20021;-76
2024/03/13 03:44:18;;;;;;;17.95;12.90;;;282.00;2278.40;;;;;;5054556;28;20032;-77
2024/03/13 03:46:44;;;;;;;15.75;11.60;;;282.00;2278.40;;;;;;5053205;28;20021;-79
2024/03/13 03:49:10;;;;;;;17.50;11.73;;;282.00;2278.40;;;;;;5054662;28;20017;-76
2024/03/13 03:51:37;;;;;;;16.67;11.02;;;282.00;2278.40;;;;;;5053139;28;20553;-79
2024/03/13 03:54:03;;;;;;;15.65;10.88;;;282.00;2278.40;;;;;;5053110;28;20063;-76
2024/03/13 03:56:30;;;;;;;16.17;11.02;;;282.00;2278.40;;;;;;5052891;28;20020;-76
2024/03/13 03:58:57;;;;;;;14.45;10.45;;;282.00;2278.40;;;;;;5054516;28;20056;-75
2024/03/13 04:01:26;;;;;;;14.80;10.95;;;281.80;2278.40;;;;;;5054209;28;20026;-77
2024/03/13 04:03:52;;;;;;;15.65;11.20;;;281.90;2278.40;;;;;;5054399;28;20057;-76
2024/03/13 04:06:18;;;;;;;15.18;10.38;;;281.90;2278.40;;;;;;5054121;28;20040;-77
2024/03/13 04:08:45;;;;;;;15.30;11.07;;;281.90;2278.40;;;;;;5053992;28;20537;-76
2024/03/13 04:11:12;;;;;;;17.13;11.48;;;281.80;2278.40;;;;;;5052526;28;20029;-77
2024/03/13 04:13:38;;;;;;;14.95;11.30;;;281.80;2278.40;;;;;;5053992;28;20029;-76
2024/03/13 04:16:06;;;;;;;14.48;10.57;;;281.80;2278.40;;;;;;5054099;28;20070;-76
2024/03/13 04:18:36;;;;;;;14.13;10.30;;;281.80;2278.40;;;;;;5053930;28;20032;-76
2024/03/13 04:21:03;;;;;;;14.93;10.77;;;281.80;2278.40;;;;;;5053881;28;20502;-76
2024/03/13 04:23:29;;;;;;;16.70;11.55;;;281.80;2278.40;;;;;;5054216;28;20386;-78
2024/03/13 04:25:55;;;;;;;16.38;11.02;;;281.80;2278.40;;;;;;5040299;28;20021;-77
2024/03/13 04:28:22;;;;;;;16.70;12.15;;;281.80;2278.40;;;;;;5052254;28;20070;-78
2024/03/13 04:30:48;;;;;;;18.38;11.23;;;281.70;2278.40;;;;;;5052616;28;20082;-79
2024/03/13 04:33:16;;;;;;;18.60;10.93;;;281.70;2278.40;;;;;;5053680;28;20394;-79
2024/03/13 04:35:43;;;;;;;18.95;11.38;;;281.80;2278.40;;;;;;5053370;28;20023;-76
2024/03/13 04:38:10;;;;;;;17.17;11.23;;;281.70;2278.40;;;;;;5053687;28;20544;-76
2024/03/13 04:40:39;;;;;;;17.85;12.57;;;281.80;2278.40;;;;;;5051831;28;20033;-76
2024/03/13 04:43:08;;;;;;;16.02;11.15;;;281.70;2278.40;;;;;;5053671;28;20025;-77
2024/03/13 04:45:37;;;;;;;17.25;11.95;;;281.70;2278.40;;;;;;5053533;28;20025;-76
2024/03/13 04:48:07;;;;;;;18.15;10.52;;;281.70;2278.40;;;;;;5051631;28;20450;-76
2024/03/13 04:50:36;;;;;;;15.13;10.55;;;281.70;2278.40;;;;;;5052328;28;20469;-76
2024/03/13 04:53:02;;;;;;;18.63;12.18;;;281.70;2278.40;;;;;;5051378;28;20064;-77
2024/03/13 04:55:31;;;;;;;23.75;12.90;;;281.70;2278.40;;;;;;5053389;28;20032;-76
2024/03/13 04:57:58;;;;;;;14.98;10.35;;;281.80;2278.40;;;;;;5063303;28;20040;-79
2024/03/13 05:00:24;;;;;;;17.27;11.52;;;281.70;2278.40;;;;;;5051735;28;20178;-76
2024/03/13 05:02:51;;;;;;;16.15;11.65;;;281.70;2278.40;;;;;;5053234;28;20021;-77
2024/03/13 05:05:17;;;;;;;14.65;10.90;;;281.70;2278.40;;;;;;5052927;28;20502;-77
2024/03/13 05:07:43;;;;;;;16.10;10.93;;;281.70;2278.40;;;;;;5051325;28;20052;-76
2024/03/13 05:10:09;;;;;;;14.48;10.25;;;281.70;2278.40;;;;;;5053112;28;20457;-76
2024/03/13 05:12:38;;;;;;;16.73;11.60;;;281.70;2278.40;;;;;;5026828;28;20471;-76
2024/03/13 05:15:06;;;;;;;17.38;11.13;;;281.70;2278.40;;;;;;5053074;28;20096;-78
2024/03/13 05:17:36;;;;;;;15.60;10.70;;;281.70;2278.40;;;;;;5039227;28;20029;-77
2024/03/13 05:20:06;;;;;;;16.20;11.18;;;281.70;2278.40;;;;;;5053238;28;20431;-79
2024/03/13 05:22:35;;;;;;;16.90;11.70;;;281.70;2278.40;;;;;;5051519;28;20021;-76
2024/03/13 05:25:02;;;;;;;15.27;10.77;;;281.70;2278.40;;;;;;5053013;28;20056;-79
2024/03/13 05:27:27;;;;;;;16.65;11.52;;;281.70;2278.40;;;;;;5051349;28;20013;-79
2024/03/13 05:29:53;;;;;;;17.27;11.07;;;281.60;2278.40;;;;;;5053042;28;20031;-76
2024/03/13 05:32:19;;;;;;;19.00;12.18;;;281.60;2278.40;;;;;;5051216;28;20028;-78
2024/03/13 05:34:46;;;;;;;19.35;11.90;;;281.70;2278.40;;;;;;5041743;28;20043;-76
2024/03/13 05:37:12;;;;;;;17.42;11.15;;;281.70;2278.40;;;;;;5050250;28;20102;-77
2024/03/13 05:39:38;;;;;;;17.88;11.38;;;281.70;2278.40;;;;;;5053077;28;20028;-77
2024/03/13 05:42:04;;;;;;;;;;;281.70;2278.40;;;;;;5053500;28;20159;-77
2024/03/13 05:44:29;;;;;;;14.90;10.50;;;281.70;2278.40;;;;;;5035225;28;20332;-76
2024/03/13 05:46:56;;;;;;;14.98;10.70;;;281.70;2278.40;;;;;;5052760;28;20024;-77
2024/03/13 05:49:22;;;;;;;20.17;12.55;;;281.70;2278.40;;;;;;5053114;28;20025;-76
2024/03/13 05:51:48;;;;;;;17.30;11.60;;;281.70;2278.40;;;;;;5052670;28;20381;-80
2024/03/13 05:54:14;;;;;;;;;;;281.70;2278.40;;;;;;5044606;28;20075;-78
2024/03/13 05:56:40;;;;;;;17.42;12.27;;;281.80;2278.40;;;;;;5041132;28;19909;-76
2024/03/13 05:59:06;;;;;;;19.25;13.15;;;281.80;2278.40;;;;;;5064420;28;20402;-76
2024/03/13 06:01:32;;;;;;;15.70;11.45;;;281.80;2278.40;;;;;;5070053;28;20021;-76
2024/03/13 06:03:59;;;;;;;18.50;12.60;;;281.80;2278.40;;;;;;5065308;28;20028;-77
2024/03/13 06:06:25;;;;;;;19.98;12.18;;;281.80;2278.40;;;;;;5054549;28;20020;-78
2024/03/13 06:08:51;;;;;;;16.42;11.98;;;281.80;2278.40;;;;;;5070682;28;20115;-77
2024/03/13 06:11:18;;;;;;;16.92;12.48;;;281.80;2278.40;;;;;;5065129;28;20027;-76
2024/03/13 06:13:45;;;;;;;18.88;11.82;;;281.90;2278.40;;;;;;5049060;28;20082;-76
2024/03/13 06:16:11;;;;;;;18.23;12.48;;;281.90;2278.40;;;;;;5049852;28;20017;-76
2024/03/13 06:18:37;;;;;;;27.60;17.45;;;281.90;2278.40;;;;;;5067755;28;20462;-74
2024/03/13 06:21:10;;;;;;;17.75;12.50;;;281.90;2278.40;;;;;;5063758;28;20039;-74
2024/03/13 06:23:37;;;;;;;19.88;13.15;;;281.90;2278.40;;;;;;5069399;28;20024;-74
2024/03/13 06:26:07;;;;;;;17.67;12.15;;;282.00;2278.40;;;;;;5072216;28;20146;-73
2024/03/13 06:31:17;;;;;;;16.77;11.85;;;281.90;2278.40;;;;;;5062351;28;20043;-76
2024/03/13 06:33:43;;;;;;;16.73;11.40;;;281.90;2278.40;;;;;;5072715;28;20028;-73
2024/03/13 06:36:10;;;;;;;18.08;12.75;;;281.90;2278.40;;;;;;5063854;28;20039;-74
2024/03/13 06:38:36;;;;;;;19.55;13.60;;;282.00;2278.40;;;;;;5068142;28;20465;-74
2024/03/13 06:41:02;;;;;;;19.20;12.88;;;282.00;2278.40;;;;;;5075314;28;20048;-73
2024/03/13 06:43:28;;;;;;;18.60;12.10;;;282.00;2278.40;;;;;;5069209;28;20028;-74
2024/03/13 06:45:54;;;;;;;20.70;12.40;;;282.00;2278.40;;;;;;5058757;28;20033;-73
2024/03/13 06:48:19;;;;;;;18.65;11.32;;;282.00;2278.40;;;;;;5069251;28;20029;-74
2024/03/13 06:50:46;;;;;;;18.50;12.85;;;282.00;2278.40;;;;;;5068885;28;20386;-78
2024/03/13 06:53:12;;;;;;;16.67;11.38;;;282.10;2278.40;;;;;;5048796;28;20036;-76
2024/03/13 06:55:38;;;;;;;19.40;12.13;;;282.10;2278.40;;;;;;5071809;28;20166;-76
2024/03/13 06:58:04;;;;;;;20.45;14.00;;;282.10;2278.40;;;;;;5067850;28;20045;-79
2024/03/13 07:00:32;;;;;;;20.33;14.35;;;282.10;2278.40;;;;;;5053469;28;21000;-76
2024/03/13 07:03:02;;;;;;;22.02;15.00;;;282.10;2278.40;;;;;;5052089;28;20028;-76
2024/03/13 07:05:28;;;;;;;20.00;13.55;;;282.10;2278.40;;;;;;5060332;28;20032;-78
2024/03/13 07:07:57;;;;;;;20.05;13.45;;;282.20;2278.40;;;;;;5063062;28;20501;-76
2024/03/13 07:10:23;;;;;;;22.05;13.93;;;282.20;2278.40;;;;;;5034391;28;20120;-76
2024/03/13 07:12:49;;;;;;;37.60;21.65;;;282.20;2278.40;;;;;;5053164;28;20108;-78
2024/03/13 07:15:16;;;;;;;22.33;13.90;;;282.30;2278.40;;;;;;5049735;28;20032;-75
2024/03/13 07:17:44;;;;;;;21.40;12.20;;;282.30;2278.40;;;;;;5072081;28;20035;-77
2024/03/13 07:20:10;;;;;;;19.83;12.90;;;282.30;2278.40;;;;;;5070613;28;20033;-79
2024/03/13 07:22:38;;;;;;;23.80;15.43;;;282.40;2278.40;;;;;;5046459;28;20030;-78
2024/03/13 07:25:07;;;;;;;23.20;16.30;;;282.40;2278.40;;;;;;5048893;28;20035;-77
2024/03/13 07:27:33;;;;;;;41.05;17.17;;;282.40;2278.40;;;;;;5071426;28;20490;-77
2024/03/13 07:29:59;;;;;;;23.25;14.75;;;282.40;2278.40;;;;;;5068232;28;20056;-77
2024/03/13 07:32:25;;;;;;;33.92;17.20;;;282.40;2278.40;;;;;;5041702;28;20508;-76
2024/03/13 07:34:51;;;;;;;21.52;14.18;;;282.50;2278.40;;;;;;5064991;28;20070;-78
2024/03/13 07:37:16;;;;;;;17.45;12.18;;;282.50;2278.40;;;;;;5049709;28;20025;-76
2024/03/13 07:39:42;;;;;;;;;;;282.50;2278.40;;;;;;5071668;28;20063;-78
2024/03/13 07:42:08;;;;;;;23.73;13.75;;;307.20;2304.00;;;;;;5067421;28;19983;-78
2024/03/13 07:44:34;;;;;;;17.90;12.15;;;307.30;2304.00;;;;;;5049500;28;20024;-78
2024/03/13 07:46:59;;;;;;;18.67;13.13;;;307.30;2304.00;;;;;;5069106;28;20132;-76
2024/03/13 07:49:26;;;;;;;20.52;13.30;;;307.30;2304.00;;;;;;5054023;28;20029;-77
2024/03/13 07:51:54;;;;;;;21.83;14.13;;;307.20;2304.00;;;;;;5067232;28;20438;-75
2024/03/13 07:54:22;;;;;;;22.77;14.23;;;307.30;2304.00;;;;;;5052223;28;20036;-78
2024/03/13 07:56:48;;;;;;;22.77;14.75;;;307.30;2304.00;;;;;;5024732;28;20527;-79
2024/03/13 07:59:14;;;;;;;21.35;13.85;;;307.40;2304.00;;;;;;5051704;28;20071;-80
2024/03/13 08:01:45;;;;;;;17.65;12.65;;;307.40;2304.00;;;;;;5049069;28;20025;-79
2024/03/13 08:04:11;;;;;;;24.45;15.88;;;307.50;2304.00;;;;;;5051116;28;20032;-79
2024/03/13 08:06:40;;;;;;;24.20;15.95;;;307.40;2304.00;;;;;;5068439;28;20032;-79
2024/03/13 08:09:06;;;;;;;27.52;15.15;;;307.40;2304.00;;;;;;5050934;28;20039;-79
2024/03/13 08:11:32;;;;;;;22.30;14.82;;;307.50;2304.00;;;;;;5044478;28;20025;-80
2024/03/13 08:14:01;;;;;;;23.80;14.40;;;307.40;2304.00;;;;;;5057706;28;20021;-79
2024/03/13 08:16:27;;;;;;;27.42;16.23;;;307.40;2304.00;;;;;;5056440;28;20221;-79
2024/03/13 08:18:53;;;;;;;29.33;16.10;;;307.50;2304.00;;;;;;5050518;28;20033;-78
2024/03/13 08:21:19;;;;;;;23.77;14.85;;;307.60;2304.00;;;;;;5039010;28;20017;-76
2024/03/13 08:23:44;;;;;;;20.35;14.02;;;307.50;2304.00;;;;;;5064783;28;20036;-78
2024/03/13 08:26:13;;;;;;;21.70;15.50;;;307.60;2304.00;;;;;;5043791;28;20033;-76
2024/03/13 08:28:40;;;;;;;20.25;13.55;;;307.60;2304.00;;;;;;5070381;28;20107;-78
2024/03/13 08:31:06;;;;;;;22.55;14.85;;;307.60;2304.00;;;;;;5070864;28;20025;-77
2024/03/13 08:33:33;;;;;;;20.33;13.50;;;307.70;2304.00;;;;;;5043893;28;20020;-78
2024/03/13 08:36:02;;;;;;;20.92;14.25;;;307.80;2304.00;;;;;;5058496;28;20021;-77
2024/03/13 08:38:32;;;;;;;19.95;13.63;;;307.80;2304.00;;;;;;5049621;28;20439;-78
2024/03/13 08:40:59;;;;;;;21.95;14.82;;;307.90;2304.00;;;;;;5047994;28;20021;-79
2024/03/13 08:43:26;;;;;;;26.58;15.65;;;308.10;2304.00;;;;;;5049770;28;20375;-80
2024/03/13 08:45:52;;;;;;;28.80;15.93;;;308.10;2304.00;;;;;;5062728;28;20051;-79
2024/03/13 08:48:19;;;;;;;25.55;16.15;;;308.10;2304.00;;;;;;5032510;28;20056;-78
2024/03/13 08:50:44;;;;;;;31.30;18.33;;;308.00;2304.00;;;;;;5062901;28;20126;-79
2024/03/13 08:53:14;;;;;;;26.35;16.50;;;332.80;2329.60;;;;;;5057992;28;20028;-77
2024/03/13 08:55:40;;;;;;;23.50;15.07;;;332.90;2329.60;;;;;;5054716;28;20050;-79
2024/03/13 08:58:06;;;;;;;22.55;14.75;;;332.90;2329.60;;;;;;5064568;28;20432;-78
2024/03/13 09:00:32;;;;;;;23.85;15.52;;;333.00;2329.60;;;;;;5047610;28;20020;-79
2024/03/13 09:03:01;;;;;;;24.88;16.50;;;333.00;2329.60;;;;;;5043354;28;20359;-77
2024/03/13 09:05:30;;;;;;;27.05;15.90;;;333.10;2329.60;;;;;;5062678;28;20484;-78
2024/03/13 09:07:56;;;;;;;20.92;13.98;;;333.00;2329.60;;;;;;5059428;28;20044;-80
2024/03/13 09:10:22;;;;;;;24.55;17.05;;;332.90;2329.60;;;;;;5035350;28;20101;-79
2024/03/13 09:12:48;;;;;;;25.67;17.10;;;332.80;2329.60;;;;;;5047095;28;20025;-81
2024/03/13 09:15:14;;;;;;;28.13;18.73;;;332.80;2329.60;;;;;;5042078;28;20025;-79
2024/03/13 09:17:40;;;;;;;26.25;15.88;;;308.10;2304.00;;;;;;5045802;28;20036;-78
2024/03/13 09:20:07;;;;;;;26.10;17.15;;;332.80;2329.60;;;;;;5043938;28;20062;-78
2024/03/13 09:22:33;;;;;;;25.58;16.90;;;332.90;2329.60;;;;;;5049599;28;20040;-78
2024/03/13 09:24:59;;;;;;;28.65;15.75;;;332.90;2329.60;;;;;;5028784;28;20033;-78
2024/03/13 09:27:25;;;;;;;24.63;14.50;;;333.00;2329.60;;;;;;5039473;28;20033;-81
2024/03/13 09:29:54;;;;;;;25.55;15.77;;;333.10;2329.60;;;;;;5062775;28;20029;-77
2024/03/13 09:32:21;;;;;;;24.30;15.55;;;333.20;2329.60;;;;;;5023608;28;20577;-78
2024/03/13 09:34:48;;;;;;;23.00;14.88;;;333.20;2329.60;;;;;;5030442;28;20037;-77
2024/03/13 09:37:16;;;;;;;23.85;15.60;;;332.90;2329.60;;;;;;5064782;28;20024;-75
2024/03/13 09:39:42;;;;;;;21.75;15.75;;;333.20;2329.60;;;;;;5066651;28;20041;-76
2024/03/13 09:42:16;;;;;;;28.05;17.02;;;333.20;2329.60;;;;;;5032259;28;20474;-75
2024/03/13 09:44:47;;;;;;;27.45;17.17;;;333.30;2329.60;;;;;;5045032;28;20856;-77
2024/03/13 09:47:13;;;;;;;28.08;17.58;;;333.50;2329.60;;;;;;5047060;28;20039;-76
2024/03/13 09:49:48;;;;;;;29.77;19.15;;;333.70;2329.60;;;;;;5050986;28;20059;-77
2024/03/13 09:52:15;;;;;;;29.77;17.35;;;333.50;2329.60;;;;;;5072463;28;20381;-77
2024/03/13 09:54:45;;;;;;;22.88;14.88;;;333.50;2329.60;;;;;;5067450;28;20013;-75
2024/03/13 09:57:12;;;;;;;25.27;16.38;;;333.40;2329.60;;;;;;5047755;28;20055;-77
2024/03/13 09:59:38;;;;;;;26.42;16.48;;;333.40;2329.60;;;;;;5049643;28;20040;-76
2024/03/13 10:02:14;;;;;;;28.40;15.98;;;333.60;2329.60;;;;;;5069855;28;20490;-76
2024/03/13 10:04:42;;;;;;;20.65;14.05;;;333.60;2329.60;;;;;;5044534;28;20374;-76
2024/03/13 10:07:17;;;;;;;29.55;18.88;;;333.60;2329.60;;;;;;5066189;28;20037;-77
2024/03/13 10:09:44;;;;;;;25.48;16.42;;;333.60;2329.60;;;;;;5068535;28;20037;-76
2024/03/13 10:12:11;;;;;;;22.20;16.17;;;333.50;2329.60;;;;;;5069904;28;20021;-75
2024/03/13 10:14:39;;;;;;;23.00;15.57;;;333.50;2329.60;;;;;;5063148;28;20020;-78
2024/03/13 10:17:09;;;;;;;25.58;17.45;;;333.60;2329.60;;;;;;5075554;28;20032;-79
2024/03/13 10:19:43;;;;;;;25.35;16.90;;;333.60;2329.60;;;;;;5068116;28;20032;-75
2024/03/13 10:22:09;;;;;;;33.85;21.48;;;333.70;2329.60;;;;;;5049258;28;20032;-76
2024/03/13 10:24:36;;;;;;;25.88;17.95;;;358.40;2329.60;;;;;;5061506;28;20028;-79
2024/03/13 10:27:07;;;;;;;28.73;18.85;;;358.40;2329.60;;;;;;5050294;28;20033;-74
2024/03/13 10:29:33;;;;;;;27.85;17.25;;;358.50;2329.60;;;;;;5069415;28;20029;-76
2024/03/13 10:32:00;;;;;;;31.08;18.10;;;358.60;2329.60;;;;;;5073252;28;20028;-77
2024/03/13 10:34:26;;;;;;;27.80;17.75;;;358.50;2329.60;;;;;;5048624;28;20385;-76
2024/03/13 10:36:52;;;;;;;23.63;17.02;;;358.50;2329.60;;;;;;5038321;28;20135;-77
2024/03/13 10:39:18;;;;;;;35.50;21.45;;;358.50;2329.60;;;;;;5032965;28;20099;-77
2024/03/13 10:41:46;;;;;;;27.25;17.58;;;358.50;2329.60;;;;;;5066345;28;20083;-77
2024/03/13 10:44:12;;;;;;;26.70;17.23;;;358.60;2329.60;;;;;;5037985;28;20482;-78
2024/03/13 10:46:38;;;;;;;25.30;17.20;;;358.70;2329.60;;;;;;5048034;28;20078;-75
2024/03/13 10:49:07;;;;;;;28.48;18.08;;;358.70;2329.60;;;;;;5071393;28;20017;-75
2024/03/13 10:51:33;;;;;;;27.40;17.10;;;358.80;2329.60;;;;;;5062457;28;20029;-75
2024/03/13 10:54:05;;;;;;;20.38;14.52;;;358.80;2329.60;;;;;;5056637;28;20048;-75
2024/03/13 10:56:31;;;;;;;19.98;13.88;;;358.80;2329.60;;;;;;5073346;28;20024;-75
2024/03/13 10:58:57;;;;;;;31.08;17.02;;;358.70;2329.60;;;;;;5062562;28;20033;-79
2024/03/13 11:01:23;;;;;;;23.48;15.77;;;358.60;2329.60;;;;;;5061213;28;20140;-78
2024/03/13 11:04:01;;;;;;;19.98;14.25;;;358.50;2329.60;;;;;;5050739;28;20033;-75
2024/03/13 11:06:32;;;;;;;23.90;15.27;;;358.50;2329.60;;;;;;5050742;28;20092;-79
2024/03/13 11:09:00;;;;;;;23.35;14.63;;;358.50;2329.60;;;;;;5062950;28;20158;-78
2024/03/13 11:11:26;;;;;;;22.48;15.32;;;358.50;2329.60;;;;;;5069762;28;20028;-77
2024/03/13 11:13:58;;;;;;;19.38;13.82;;;358.70;2329.60;;;;;;5035525;28;20044;-79
2024/03/13 11:16:24;;;;;;;22.25;15.05;;;358.60;2329.60;;;;;;5050181;28;20470;-77
2024/03/13 11:18:55;;;;;;;20.40;14.20;;;358.60;2329.60;;;;;;5057230;28;20471;-76
2024/03/13 11:21:37;;;;;;;20.45;14.07;;;358.70;2329.60;;;;;;5046180;28;20025;-76
2024/03/13 11:24:07;;;;;;;27.95;17.40;;;358.70;2329.60;;;;;;5039731;28;20029;-76
2024/03/13 11:26:45;;;;;;;22.52;16.23;;;358.80;2329.60;;;;;;5054807;28;20395;-77
2024/03/13 11:29:12;;;;;;;30.50;19.42;;;358.70;2329.60;;;;;;5058809;28;20096;-76
2024/03/13 11:31:41;;;;;;;32.95;19.25;;;358.80;2329.60;;;;;;5069475;28;20032;-77
2024/03/13 11:34:09;;;;;;;25.05;16.48;;;358.80;2329.60;;;;;;5053336;28;20028;-77
2024/03/13 11:36:35;;;;;;;27.20;16.63;;;358.80;2329.60;;;;;;5050989;28;20021;-77
2024/03/13 11:39:03;;;;;;;28.98;16.30;;;358.90;2329.60;;;;;;5048176;28;20048;-74
2024/03/13 11:41:31;;;;;;;23.02;15.73;;;358.80;2329.60;;;;;;5069383;28;20055;-77
2024/03/13 11:44:00;;;;;;;21.10;15.05;;;358.80;2329.60;;;;;;5068950;28;20504;-77
2024/03/13 11:46:44;;;;;;;20.00;14.02;;;358.90;2329.60;;;;;;5052327;28;20036;-77
2024/03/13 11:49:09;;;;;;;23.70;16.20;;;358.80;2329.60;;;;;;5060251;28;20029;-78
2024/03/13 11:51:36;;;;;;;23.85;14.98;;;358.80;2329.60;;;;;;5067031;28;20522;-76
2024/03/13 11:54:12;;;;;;;26.02;14.43;;;358.80;2329.60;;;;;;5063782;28;20082;-77
2024/03/13 11:56:42;;;;;;;25.48;15.48;;;358.80;2329.60;;;;;;5034072;28;20025;-76
2024/03/13 11:59:08;;;;;;;27.83;16.33;;;358.80;2329.60;;;;;;5070670;28;20037;-77
2024/03/13 12:01:35;;;;;;;22.27;16.33;;;358.70;2329.60;;;;;;5053986;28;20508;-75
2024/03/13 12:04:05;;;;;;;21.27;14.48;;;358.70;2329.60;;;;;;5053484;28;20029;-77
2024/03/13 12:06:36;;;;;;;21.75;15.27;;;358.60;2329.60;;;;;;5058504;28;20068;-78
2024/03/13 12:09:09;;;;;;;22.58;16.98;;;358.60;2329.60;;;;;;5062190;28;20112;-75
2024/03/13 12:11:37;;;;;;;26.15;15.90;;;358.50;2329.60;;;;;;5035072;28;20533;-76
2024/03/13 12:14:03;;;;;;;23.60;15.32;;;358.50;2329.60;;;;;;5056805;28;20143;-78
2024/03/13 12:16:29;;;;;;;24.92;14.35;;;358.50;2329.60;;;;;;5065721;28;20481;-78
2024/03/13 12:18:55;;;;;;;20.48;14.00;;;358.40;2329.60;;;;;;5072947;28;20064;-77
2024/03/13 12:21:24;;;;;;;24.42;17.48;;;358.40;2329.60;;;;;;5049690;28;20108;-76
2024/03/13 12:23:52;;;;;;;21.55;15.43;;;333.70;2329.60;;;;;;5065055;28;20044;-76
2024/03/13 12:26:19;;;;;;;23.77;16.27;;;333.70;2329.60;;;;;;5053392;28;20024;-77